Time;durP1;ratioP1;P1;durP2;ratioP2;P2;SDS_P1;SDS_P2;PMS_P1;PMS_P2;Temp;Humidity;BMP_temperature;BMP_pressure;BME280_temperature;BME280_humidity;BME280_pressure;Samples;Min_cycle;Max_cycle;Signal;HPM_P1;HPM_P2
2020/12/18 00:01:27;;;;;;;3.77;3.43;;;5.90;99.90;;;;;;5055164;28;20398;-63
2020/12/18 00:03:54;;;;;;;3.53;3.23;;;5.90;99.90;;;;;;5054695;28;20436;-62
2020/12/18 00:06:24;;;;;;;3.37;3.07;;;5.90;99.90;;;;;;5054898;28;20438;-62
2020/12/18 00:08:50;;;;;;;4.73;4.00;;;5.80;99.90;;;;;;5054507;28;20398;-63
2020/12/18 00:11:24;;;;;;;3.30;3.10;;;5.80;99.90;;;;;;5054754;28;20506;-63
2020/12/18 00:13:50;;;;;;;3.23;3.03;;;5.80;99.90;;;;;;5054361;28;20454;-62
2020/12/18 00:16:17;;;;;;;3.03;2.73;;;5.80;99.90;;;;;;5054808;28;20398;-63
2020/12/18 00:18:43;;;;;;;5.73;4.00;;;5.80;99.90;;;;;;5054379;28;20406;-63
2020/12/18 00:21:08;;;;;;;3.80;3.50;;;5.80;99.90;;;;;;5054592;28;20896;-63
2020/12/18 00:23:34;;;;;;;5.33;3.73;;;5.80;99.90;;;;;;5054464;28;20194;-62
2020/12/18 00:26:00;;;;;;;3.53;3.33;;;5.80;99.90;;;;;;5054468;28;20574;-62
2020/12/18 00:28:25;;;;;;;5.57;3.70;;;5.90;99.90;;;;;;5054141;28;20179;-63
2020/12/18 00:30:51;;;;;;;5.63;5.23;;;5.90;99.90;;;;;;5054510;28;20798;-63
2020/12/18 00:33:17;;;;;;;4.80;3.90;;;5.90;99.90;;;;;;5054312;28;20459;-62
2020/12/18 00:35:42;;;;;;;7.30;3.83;;;5.80;99.90;;;;;;5054232;28;20172;-63
2020/12/18 00:38:08;;;;;;;4.50;4.10;;;5.80;99.90;;;;;;5054019;28;20164;-62
2020/12/18 00:40:33;;;;;;;4.03;3.80;;;6.00;99.90;;;;;;5054045;28;20176;-63
2020/12/18 00:42:59;;;;;;;3.83;3.53;;;5.90;99.90;;;;;;5054171;28;20190;-62
2020/12/18 00:45:24;;;;;;;4.20;3.80;;;5.90;99.90;;;;;;5053962;28;20214;-63
2020/12/18 00:47:50;;;;;;;8.23;4.23;;;5.80;99.90;;;;;;5053891;28;20543;-61
2020/12/18 00:50:16;;;;;;;3.43;3.23;;;5.80;99.90;;;;;;5054090;28;20164;-63
2020/12/18 00:52:41;;;;;;;3.83;3.53;;;5.70;99.90;;;;;;5053958;28;20176;-63
2020/12/18 00:55:07;;;;;;;4.17;3.20;;;5.70;99.90;;;;;;5053693;28;20200;-63
2020/12/18 00:57:32;;;;;;;3.47;3.17;;;5.70;99.90;;;;;;5053365;28;20180;-62
2020/12/18 00:59:58;;;;;;;3.97;3.50;;;5.60;99.90;;;;;;5053887;28;20263;-63
2020/12/18 01:02:24;;;;;;;3.87;3.40;;;5.70;99.90;;;;;;5063233;28;20203;-63
2020/12/18 01:04:49;;;;;;;5.53;3.20;;;5.70;99.90;;;;;;5073242;28;20183;-63
2020/12/18 01:07:15;;;;;;;3.83;3.53;;;5.70;99.90;;;;;;5072476;28;20175;-62
2020/12/18 01:09:40;;;;;;;3.07;2.90;;;5.80;99.90;;;;;;5073575;28;20175;-61
2020/12/18 01:12:11;;;;;;;5.23;3.20;;;5.80;99.90;;;;;;5073424;28;20332;-63
2020/12/18 01:14:37;;;;;;;3.90;3.50;;;5.80;99.90;;;;;;5073297;28;20206;-62
2020/12/18 01:17:02;;;;;;;3.10;2.90;;;5.80;99.90;;;;;;5073127;28;20942;-62
2020/12/18 01:19:28;;;;;;;2.73;2.43;;;5.80;99.90;;;;;;5073347;28;20174;-63
2020/12/18 01:21:54;;;;;;;3.97;3.47;;;5.80;99.90;;;;;;5073299;28;20250;-63
2020/12/18 01:24:19;;;;;;;3.63;3.33;;;5.80;99.90;;;;;;5072971;28;20206;-63
2020/12/18 01:26:46;;;;;;;3.03;2.83;;;5.70;99.90;;;;;;5073052;28;20171;-61
2020/12/18 01:29:12;;;;;;;3.33;2.57;;;5.80;99.90;;;;;;5073106;28;20195;-63
2020/12/18 01:31:38;;;;;;;2.80;2.60;;;5.70;99.90;;;;;;5073250;28;20776;-62
2020/12/18 01:34:03;;;;;;;3.23;3.03;;;5.60;99.90;;;;;;5073004;28;20449;-62
2020/12/18 01:36:29;;;;;;;3.40;3.10;;;5.60;99.90;;;;;;5072746;28;20249;-58
2020/12/18 01:38:54;;;;;;;3.17;2.97;;;5.60;99.90;;;;;;5072805;28;20175;-60
2020/12/18 01:41:20;;;;;;;3.37;3.10;;;5.60;99.90;;;;;;5072785;28;20167;-60
2020/12/18 01:43:46;;;;;;;2.60;2.40;;;5.60;99.90;;;;;;5072881;28;20191;-60
2020/12/18 01:46:13;;;;;;;3.53;2.50;;;5.60;99.90;;;;;;5071758;28;20190;-61
2020/12/18 01:48:40;;;;;;;2.60;2.47;;;5.60;99.90;;;;;;5072415;28;20190;-59
2020/12/18 01:51:08;;;;;;;5.30;2.53;;;5.50;99.90;;;;;;5072771;28;20467;-63
2020/12/18 01:53:34;;;;;;;3.57;3.17;;;5.50;99.90;;;;;;5072449;28;20418;-60
2020/12/18 01:56:00;;;;;;;3.10;2.90;;;5.60;99.90;;;;;;5072806;28;20406;-58
2020/12/18 01:58:26;;;;;;;4.70;3.97;;;5.60;99.90;;;;;;5072400;28;20421;-60
2020/12/18 02:00:52;;;;;;;4.53;3.40;;;5.70;99.90;;;;;;5072680;28;20409;-62
2020/12/18 02:03:18;;;;;;;3.43;3.23;;;5.60;99.90;;;;;;5072412;28;20426;-62
2020/12/18 02:05:43;;;;;;;3.27;3.07;;;5.70;99.90;;;;;;5072670;28;20405;-59
2020/12/18 02:08:10;;;;;;;4.10;3.07;;;5.70;99.90;;;;;;5072301;28;20202;-59
2020/12/18 02:10:36;;;;;;;3.50;3.20;;;5.80;99.90;;;;;;5072581;28;20156;-58
2020/12/18 02:13:01;;;;;;;3.47;3.20;;;5.70;99.90;;;;;;5072297;28;20967;-57
2020/12/18 02:15:29;;;;;;;8.37;3.87;;;5.80;99.90;;;;;;5072398;28;20179;-58
2020/12/18 02:17:54;;;;;;;8.33;3.60;;;5.80;99.90;;;;;;5071360;28;20194;-60
2020/12/18 02:20:20;;;;;;;3.73;3.43;;;5.90;99.90;;;;;;5072496;28;20393;-57
2020/12/18 02:22:47;;;;;;;6.10;4.63;;;6.00;99.90;;;;;;5072323;28;20217;-59
2020/12/18 02:25:13;;;;;;;5.77;3.93;;;5.90;99.90;;;;;;5072293;28;20663;-61
2020/12/18 02:27:39;;;;;;;4.03;3.60;;;5.90;99.90;;;;;;5072201;28;20471;-61
2020/12/18 02:30:07;;;;;;;3.40;3.00;;;5.90;99.90;;;;;;5072221;28;20779;-59
2020/12/18 02:32:32;;;;;;;7.33;3.67;;;5.80;99.90;;;;;;5072196;28;20458;-63
2020/12/18 02:34:58;;;;;;;3.37;3.17;;;5.80;99.90;;;;;;5071856;28;20457;-56
2020/12/18 02:37:24;;;;;;;3.80;3.27;;;6.00;99.90;;;;;;5072104;28;20178;-59
2020/12/18 02:39:55;;;;;;;4.00;3.27;;;5.90;99.90;;;;;;5071987;28;20167;-60
2020/12/18 02:42:20;;;;;;;2.80;2.70;;;5.90;99.90;;;;;;5072150;28;20152;-57
2020/12/18 02:44:46;;;;;;;6.10;2.77;;;5.90;99.90;;;;;;5071824;28;20433;-60
2020/12/18 02:47:11;;;;;;;5.43;3.97;;;5.90;99.90;;;;;;5071974;28;20266;-59
2020/12/18 02:49:37;;;;;;;5.37;3.97;;;5.90;99.90;;;;;;5071860;28;20175;-63
2020/12/18 02:52:03;;;;;;;5.80;3.90;;;5.80;99.90;;;;;;5072282;28;20171;-59
2020/12/18 02:54:29;;;;;;;3.00;2.80;;;5.80;99.90;;;;;;5071700;28;20194;-64
2020/12/18 02:56:54;;;;;;;2.93;2.77;;;5.80;99.90;;;;;;5071733;28;20856;-59
2020/12/18 02:59:20;;;;;;;3.33;3.13;;;5.70;99.90;;;;;;5070631;28;20183;-59
2020/12/18 03:01:46;;;;;;;3.80;3.30;;;5.80;99.90;;;;;;5071793;28;20281;-59
2020/12/18 03:04:11;;;;;;;6.40;3.23;;;5.80;99.90;;;;;;5071846;28;20278;-57
2020/12/18 03:06:37;;;;;;;4.77;4.43;;;5.80;99.90;;;;;;5071644;28;20171;-57
2020/12/18 03:09:03;;;;;;;5.73;2.70;;;5.80;99.90;;;;;;5071821;28;20186;-58
2020/12/18 03:11:28;;;;;;;9.73;3.50;;;5.80;99.90;;;;;;5071659;28;20179;-59
2020/12/18 03:13:54;;;;;;;9.13;3.73;;;5.80;99.90;;;;;;5071660;28;20486;-58
2020/12/18 03:16:20;;;;;;;5.63;3.30;;;5.70;99.90;;;;;;5070331;28;20178;-64
2020/12/18 03:18:45;;;;;;;6.03;3.10;;;5.70;99.90;;;;;;5071639;28;20168;-57
2020/12/18 03:21:11;;;;;;;5.03;3.80;;;5.80;99.90;;;;;;5071708;28;20186;-60
2020/12/18 03:23:36;;;;;;;2.90;2.70;;;5.80;99.90;;;;;;5071096;28;20218;-59
2020/12/18 03:26:02;;;;;;;3.83;3.57;;;5.80;99.90;;;;;;5070522;28;20254;-60
2020/12/18 03:28:27;;;;;;;3.63;3.33;;;5.80;99.90;;;;;;5070944;28;20340;-58
2020/12/18 03:30:53;;;;;;;5.03;2.97;;;5.80;99.90;;;;;;5075149;28;20163;-58
2020/12/18 03:33:19;;;;;;;3.67;3.37;;;5.80;99.90;;;;;;5075351;28;20262;-60
2020/12/18 03:35:44;;;;;;;4.40;3.87;;;5.90;99.90;;;;;;5075574;28;20174;-63
2020/12/18 03:38:10;;;;;;;3.33;3.13;;;5.80;99.90;;;;;;5075332;28;20640;-57
2020/12/18 03:40:35;;;;;;;5.43;3.70;;;5.80;99.90;;;;;;5075754;28;20167;-59
2020/12/18 03:43:01;;;;;;;5.30;3.57;;;5.70;99.90;;;;;;5075279;28;20246;-59
2020/12/18 03:45:26;;;;;;;4.10;3.23;;;5.80;99.90;;;;;;5075257;28;20221;-63
2020/12/18 03:47:52;;;;;;;3.43;3.13;;;5.90;99.90;;;;;;5075310;28;20539;-58
2020/12/18 03:50:18;;;;;;;4.00;3.40;;;5.90;99.90;;;;;;5075124;28;20163;-56
2020/12/18 03:52:43;;;;;;;4.10;3.40;;;5.90;99.90;;;;;;5075239;28;20209;-55
2020/12/18 03:55:09;;;;;;;7.30;3.53;;;5.80;99.90;;;;;;5074822;28;20248;-63
2020/12/18 03:57:34;;;;;;;5.33;3.10;;;5.80;99.90;;;;;;5075005;28;20218;-58
2020/12/18 04:00:00;;;;;;;4.87;3.40;;;5.80;99.90;;;;;;5074976;28;20164;-59
2020/12/18 04:02:25;;;;;;;4.00;3.60;;;5.80;99.90;;;;;;5075084;28;20170;-60
2020/12/18 04:04:51;;;;;;;3.60;3.30;;;5.80;99.90;;;;;;5074734;28;20585;-61
2020/12/18 04:07:17;;;;;;;3.73;2.97;;;5.80;99.90;;;;;;5075177;28;20226;-57
2020/12/18 04:09:46;;;;;;;3.40;3.07;;;5.90;99.90;;;;;;5074910;28;20429;-57
2020/12/18 04:12:12;;;;;;;3.10;2.67;;;5.80;99.90;;;;;;5074742;28;20258;-62
2020/12/18 04:14:38;;;;;;;2.37;2.27;;;5.80;99.90;;;;;;5074683;28;20453;-60
2020/12/18 04:17:04;;;;;;;4.43;3.20;;;5.80;99.90;;;;;;5074540;28;20397;-62
2020/12/18 04:19:30;;;;;;;5.70;2.90;;;5.80;99.90;;;;;;5074780;28;20543;-62
2020/12/18 04:21:55;;;;;;;3.03;2.80;;;5.70;99.90;;;;;;5074557;28;20409;-62
2020/12/18 04:24:21;;;;;;;3.67;3.40;;;5.70;99.90;;;;;;5074568;28;20478;-57
2020/12/18 04:26:47;;;;;;;2.70;2.60;;;5.70;99.90;;;;;;5074377;28;20178;-59
2020/12/18 04:29:13;;;;;;;6.00;3.30;;;5.60;99.90;;;;;;5073321;28;20190;-57
2020/12/18 04:31:39;;;;;;;3.03;2.83;;;5.70;99.90;;;;;;5074501;28;20455;-59
2020/12/18 04:34:04;;;;;;;3.97;2.80;;;5.70;99.90;;;;;;5074198;28;20229;-57
2020/12/18 04:36:30;;;;;;;2.90;2.60;;;5.70;99.90;;;;;;5074349;28;20405;-68
2020/12/18 04:38:55;;;;;;;4.70;2.73;;;5.70;99.90;;;;;;5074248;28;20167;-57
2020/12/18 04:41:21;;;;;;;3.90;2.60;;;5.60;99.90;;;;;;5073487;28;20180;-58
2020/12/18 04:43:47;;;;;;;3.93;3.53;;;5.50;99.90;;;;;;5074033;28;20187;-59
2020/12/18 04:46:17;;;;;;;3.63;3.33;;;5.60;99.90;;;;;;5074300;28;20257;-59
2020/12/18 04:48:46;;;;;;;3.53;3.00;;;5.50;99.90;;;;;;5074045;28;20394;-58
2020/12/18 04:51:24;;;;;;;4.87;3.00;;;5.60;99.90;;;;;;5074170;28;20471;-57
2020/12/18 04:53:51;;;;;;;4.70;3.37;;;5.60;99.90;;;;;;5073865;28;20457;-57
2020/12/18 04:56:25;;;;;;;3.50;3.20;;;5.80;99.90;;;;;;5074103;28;20496;-59
2020/12/18 04:58:55;;;;;;;4.37;3.43;;;5.80;99.90;;;;;;5073849;28;20417;-63
2020/12/18 05:01:25;;;;;;;4.90;3.27;;;5.70;99.90;;;;;;5074053;28;20390;-60
2020/12/18 05:03:52;;;;;;;9.40;3.90;;;5.70;99.90;;;;;;5073938;28;20444;-63
2020/12/18 05:06:18;;;;;;;3.60;3.10;;;5.80;99.90;;;;;;5073807;28;20401;-55
2020/12/18 05:08:44;;;;;;;5.13;2.80;;;5.80;99.90;;;;;;5073825;28;20471;-58
2020/12/18 05:11:23;;;;;;;3.70;3.20;;;5.80;99.90;;;;;;5073658;28;20409;-58
2020/12/18 05:13:52;;;;;;;3.83;3.07;;;5.80;99.90;;;;;;5073607;28;20492;-63
2020/12/18 05:16:19;;;;;;;5.07;3.60;;;5.80;99.90;;;;;;5073554;28;20437;-59
2020/12/18 05:18:45;;;;;;;4.73;3.63;;;5.80;99.90;;;;;;5073607;28;20406;-64
2020/12/18 05:21:11;;;;;;;3.17;2.87;;;5.70;99.90;;;;;;5073478;28;20464;-60
2020/12/18 05:23:38;;;;;;;6.67;4.00;;;5.80;99.90;;;;;;5073443;28;20474;-57
2020/12/18 05:26:05;;;;;;;3.00;2.70;;;5.70;99.90;;;;;;5073357;28;20444;-60
2020/12/18 05:28:37;;;;;;;3.33;3.13;;;5.80;99.90;;;;;;5073411;28;20459;-62
2020/12/18 05:31:03;;;;;;;2.87;2.67;;;5.80;99.90;;;;;;5073362;28;20424;-59
2020/12/18 05:33:29;;;;;;;5.87;2.97;;;5.80;99.90;;;;;;5073110;28;20422;-61
2020/12/18 05:35:55;;;;;;;3.93;3.63;;;5.80;99.90;;;;;;5073267;28;20401;-58
2020/12/18 05:38:22;;;;;;;4.00;3.13;;;5.80;99.90;;;;;;5072985;28;20348;-59
2020/12/18 05:40:48;;;;;;;5.47;3.13;;;5.80;99.90;;;;;;5073259;28;20177;-62
2020/12/18 05:43:14;;;;;;;3.50;3.30;;;5.90;99.90;;;;;;5072926;28;20483;-61
2020/12/18 05:45:40;;;;;;;5.30;2.97;;;5.90;99.90;;;;;;5073141;28;20894;-63
2020/12/18 05:48:06;;;;;;;5.60;3.03;;;5.80;99.90;;;;;;5072885;28;20412;-62
2020/12/18 05:50:34;;;;;;;4.20;3.40;;;5.90;99.90;;;;;;5072972;28;20777;-59
2020/12/18 05:53:03;;;;;;;7.50;4.00;;;5.80;99.90;;;;;;5072507;28;20409;-60
2020/12/18 05:55:35;;;;;;;5.03;2.83;;;5.90;99.90;;;;;;5072909;28;20813;-60
2020/12/18 05:58:01;;;;;;;3.33;3.07;;;5.80;99.90;;;;;;5072705;28;20436;-60
2020/12/18 06:00:26;;;;;;;3.97;3.67;;;5.90;99.90;;;;;;5072709;28;20401;-60
2020/12/18 06:03:00;;;;;;;3.30;3.10;;;5.90;99.90;;;;;;5072825;28;20163;-63
2020/12/18 06:05:26;;;;;;;5.10;3.10;;;5.80;99.90;;;;;;5072454;28;20163;-58
2020/12/18 06:07:53;;;;;;;3.20;2.90;;;5.80;99.90;;;;;;5072663;28;20468;-57
2020/12/18 06:10:24;;;;;;;3.00;2.80;;;6.00;99.90;;;;;;5072475;28;20405;-60
2020/12/18 06:13:00;;;;;;;5.47;2.97;;;6.00;99.90;;;;;;5072597;28;20795;-58
2020/12/18 06:15:26;;;;;;;3.00;2.70;;;6.00;99.90;;;;;;5072370;28;20534;-59
2020/12/18 06:17:54;;;;;;;2.70;2.50;;;6.00;99.90;;;;;;5072454;28;20402;-59
2020/12/18 06:20:19;;;;;;;5.30;2.90;;;6.00;99.90;;;;;;5072298;28;20405;-59
2020/12/18 06:22:59;;;;;;;3.63;3.07;;;5.90;99.90;;;;;;5072366;28;20397;-59
2020/12/18 06:25:24;;;;;;;6.80;2.90;;;5.80;99.90;;;;;;5072253;28;20182;-60
2020/12/18 06:27:58;;;;;;;4.80;2.50;;;5.90;99.90;;;;;;5072292;28;20413;-58
2020/12/18 06:30:25;;;;;;;3.00;2.70;;;5.90;99.90;;;;;;5072366;28;20563;-59
2020/12/18 06:32:51;;;;;;;3.30;3.00;;;5.80;99.90;;;;;;5072132;28;20433;-58
2020/12/18 06:35:36;;;;;;;3.00;2.80;;;5.80;99.90;;;;;;5072024;28;20449;-63
2020/12/18 06:38:13;;;;;;;2.67;2.47;;;5.80;99.90;;;;;;5072010;28;20163;-60
2020/12/18 06:40:40;;;;;;;2.50;2.30;;;5.70;99.90;;;;;;5072162;28;20427;-60
2020/12/18 06:43:05;;;;;;;3.23;2.47;;;5.60;99.90;;;;;;5071914;28;20446;-59
2020/12/18 06:45:31;;;;;;;6.70;3.13;;;5.70;99.90;;;;;;5072085;28;20436;-63
2020/12/18 06:47:57;;;;;;;3.60;3.17;;;5.80;99.90;;;;;;5071861;28;20168;-60
2020/12/18 06:50:23;;;;;;;2.97;2.77;;;5.80;99.90;;;;;;5072040;28;20176;-59
2020/12/18 06:52:59;;;;;;;4.23;3.10;;;5.80;99.90;;;;;;5071921;28;20178;-59
2020/12/18 06:55:28;;;;;;;3.13;2.90;;;5.80;99.90;;;;;;5071912;28;20445;-60
2020/12/18 06:58:06;;;;;;;3.13;2.93;;;5.70;99.90;;;;;;5071643;28;20417;-62
2020/12/18 07:00:56;;;;;;;9.23;3.73;;;5.70;99.90;;;;;;5071907;28;20945;-63
2020/12/18 07:03:36;;;;;;;2.73;2.53;;;5.80;99.90;;;;;;5071615;28;20432;-63
2020/12/18 07:06:04;;;;;;;2.93;2.30;;;5.60;99.90;;;;;;5071690;28;20396;-60
2020/12/18 07:08:35;;;;;;;3.50;2.97;;;5.50;99.90;;;;;;5071667;28;20397;-61
2020/12/18 07:11:13;;;;;;;3.70;3.03;;;5.50;99.90;;;;;;5071832;28;20480;-60
2020/12/18 07:13:40;;;;;;;5.13;3.50;;;5.50;99.90;;;;;;5071694;28;20409;-60
2020/12/18 07:16:09;;;;;;;5.40;2.43;;;5.50;99.90;;;;;;5071662;28;20398;-61
2020/12/18 07:18:43;;;;;;;3.20;2.97;;;5.40;99.90;;;;;;5071924;28;20753;-60
2020/12/18 07:21:15;;;;;;;3.63;3.37;;;5.50;99.90;;;;;;5071617;28;20484;-60
2020/12/18 07:23:43;;;;;;;5.37;3.60;;;5.50;99.90;;;;;;5071649;28;20425;-59
2020/12/18 07:26:11;;;;;;;2.80;2.60;;;5.60;99.90;;;;;;5071551;28;20397;-60
2020/12/18 07:28:39;;;;;;;4.83;3.47;;;5.60;99.90;;;;;;5070359;28;20416;-62
2020/12/18 07:31:14;;;;;;;4.50;3.20;;;5.60;99.90;;;;;;5071507;28;20405;-60
2020/12/18 07:33:39;;;;;;;5.50;3.23;;;5.60;99.90;;;;;;5071537;28;20421;-60
2020/12/18 07:36:05;;;;;;;3.27;2.90;;;5.80;99.90;;;;;;5071514;28;20925;-60
2020/12/18 07:38:33;;;;;;;5.40;3.50;;;5.70;99.90;;;;;;5072131;28;20251;-61
2020/12/18 07:41:08;;;;;;;4.53;2.93;;;5.70;99.90;;;;;;5071380;28;20167;-61
2020/12/18 07:43:35;;;;;;;2.73;2.53;;;5.60;99.90;;;;;;5071283;28;20420;-61
2020/12/18 07:46:07;;;;;;;3.50;2.53;;;5.70;99.90;;;;;;5071448;28;20843;-61
2020/12/18 07:48:36;;;;;;;7.40;3.60;;;5.80;99.90;;;;;;5070942;28;20455;-61
2020/12/18 07:51:15;;;;;;;3.83;2.93;;;5.80;99.90;;;;;;5071405;28;20476;-61
2020/12/18 07:53:44;;;;;;;3.20;2.93;;;5.80;99.90;;;;;;5070996;28;20429;-61
2020/12/18 07:56:16;;;;;;;6.23;2.87;;;6.00;99.90;;;;;;5071360;28;20413;-61
2020/12/18 07:58:48;;;;;;;3.50;3.20;;;5.90;99.90;;;;;;5070874;28;20459;-61
2020/12/18 08:01:19;;;;;;;4.00;3.63;;;5.90;99.90;;;;;;5071320;28;20455;-62
2020/12/18 08:03:47;;;;;;;3.13;3.03;;;5.90;99.90;;;;;;5070936;28;20421;-62
2020/12/18 08:06:15;;;;;;;3.83;2.87;;;6.00;99.90;;;;;;5071317;28;20409;-62
2020/12/18 08:08:42;;;;;;;4.77;3.17;;;5.90;99.90;;;;;;5070827;28;20455;-61
2020/12/18 08:11:14;;;;;;;3.43;3.23;;;5.90;99.90;;;;;;5071300;28;20417;-60
2020/12/18 08:13:41;;;;;;;6.83;4.00;;;6.10;99.90;;;;;;5070816;28;20847;-60
2020/12/18 08:16:21;;;;;;;3.57;3.27;;;6.10;99.90;;;;;;5071676;28;20406;-60
2020/12/18 08:19:10;;;;;;;5.93;3.40;;;6.20;99.90;;;;;;5074332;28;20977;-60
2020/12/18 08:21:44;;;;;;;8.37;3.07;;;6.20;99.90;;;;;;5074607;28;20504;-60
2020/12/18 08:24:14;;;;;;;3.63;3.33;;;6.30;99.90;;;;;;5073187;28;20445;-60
2020/12/18 08:26:50;;;;;;;3.37;3.07;;;6.40;99.90;;;;;;5074307;28;20459;-60
2020/12/18 08:29:18;;;;;;;3.40;3.10;;;6.40;99.90;;;;;;5074499;28;20444;-60
2020/12/18 08:31:46;;;;;;;3.17;2.97;;;6.50;99.90;;;;;;5074311;28;20776;-61
2020/12/18 08:34:14;;;;;;;8.87;3.10;;;6.60;99.90;;;;;;5074231;28;20519;-60
2020/12/18 08:36:46;;;;;;;3.50;3.13;;;6.60;99.90;;;;;;5074007;28;20451;-61
2020/12/18 08:39:14;;;;;;;2.47;2.27;;;6.70;99.90;;;;;;5074360;28;20800;-60
2020/12/18 08:41:44;;;;;;;2.60;2.40;;;6.80;99.90;;;;;;5074095;28;20401;-61
2020/12/18 08:44:12;;;;;;;2.87;2.60;;;6.80;99.90;;;;;;5074203;28;20437;-60
2020/12/18 08:46:38;;;;;;;3.13;2.57;;;6.90;99.90;;;;;;5073803;28;20898;-61
2020/12/18 08:49:16;;;;;;;5.10;2.53;;;7.00;99.90;;;;;;5074211;28;20433;-61
2020/12/18 08:51:42;;;;;;;3.03;2.40;;;7.00;99.90;;;;;;5073992;28;20822;-61
2020/12/18 08:54:28;;;;;;;5.20;2.80;;;7.10;99.90;;;;;;5073898;28;20449;-60
2020/12/18 08:57:27;;;;;;;4.80;2.60;;;7.20;99.90;;;;;;5073665;28;20976;-60
2020/12/18 08:59:58;;;;;;;3.27;2.30;;;7.30;99.90;;;;;;5074019;28;20413;-61
2020/12/18 09:02:26;;;;;;;3.97;3.03;;;7.30;99.90;;;;;;5073790;28;20397;-61
2020/12/18 09:05:10;;;;;;;2.50;1.93;;;7.40;99.90;;;;;;5072486;28;20471;-61
2020/12/18 09:07:40;;;;;;;3.13;2.50;;;7.40;99.90;;;;;;5073406;28;20424;-61
2020/12/18 09:10:06;;;;;;;5.10;2.47;;;7.40;99.90;;;;;;5073900;28;20786;-61
2020/12/18 09:12:38;;;;;;;2.77;2.03;;;7.40;99.90;;;;;;5073674;28;20413;-61
2020/12/18 09:15:18;;;;;;;2.03;1.60;;;7.40;99.90;;;;;;5073336;28;20291;-61
2020/12/18 09:17:44;;;;;;;7.00;2.10;;;7.40;99.90;;;;;;5073333;28;20478;-61
2020/12/18 09:20:23;;;;;;;4.27;1.77;;;7.50;99.90;;;;;;5073447;28;20903;-60
2020/12/18 09:23:06;;;;;;;3.20;1.97;;;7.50;99.90;;;;;;5073638;28;20164;-61
2020/12/18 09:25:50;;;;;;;2.40;1.80;;;7.60;99.90;;;;;;5073229;28;20958;-61
2020/12/18 09:28:26;;;;;;;3.80;1.77;;;7.60;99.90;;;;;;5072770;28;20441;-61
2020/12/18 09:30:56;;;;;;;4.10;2.17;;;7.60;99.90;;;;;;5073192;28;20559;-61
2020/12/18 09:33:25;;;;;;;3.63;1.87;;;7.50;99.90;;;;;;5073318;28;20438;-61
2020/12/18 09:36:01;;;;;;;2.47;2.10;;;7.50;99.90;;;;;;5072930;28;20946;-60
2020/12/18 09:38:31;;;;;;;1.63;1.50;;;7.80;99.90;;;;;;5073034;28;20414;-61
2020/12/18 09:40:59;;;;;;;2.30;1.77;;;8.10;99.90;;;;;;5073182;28;20411;-61
2020/12/18 09:43:24;;;;;;;2.47;1.90;;;8.30;99.90;;;;;;5073045;28;20430;-61
2020/12/18 09:45:51;;;;;;;2.13;1.73;;;8.60;99.90;;;;;;5072810;28;20466;-59
2020/12/18 09:48:17;;;;;;;5.87;2.20;;;8.70;99.90;;;;;;5072748;28;20407;-61
2020/12/18 09:50:43;;;;;;;2.80;1.80;;;8.90;99.90;;;;;;5072760;28;20415;-61
2020/12/18 09:53:08;;;;;;;2.77;1.50;;;9.10;99.90;;;;;;5072897;28;20900;-61
2020/12/18 09:55:35;;;;;;;3.30;1.93;;;9.70;99.90;;;;;;5072740;28;20204;-61
2020/12/18 09:58:02;;;;;;;3.10;1.90;;;10.40;99.90;;;;;;5072340;28;20222;-61
2020/12/18 10:00:28;;;;;;;1.60;1.50;;;10.80;99.90;;;;;;5072778;28;20492;-61
2020/12/18 10:02:53;;;;;;;3.67;1.37;;;11.70;99.00;;;;;;5072570;28;20430;-61
2020/12/18 10:05:19;;;;;;;4.00;2.10;;;12.00;97.80;;;;;;5072518;28;20195;-60
2020/12/18 10:07:45;;;;;;;2.60;1.30;;;12.20;97.30;;;;;;5072222;28;20175;-61
2020/12/18 10:10:10;;;;;;;1.27;1.23;;;12.30;96.20;;;;;;5072701;28;20647;-61
2020/12/18 10:12:36;;;;;;;2.93;1.53;;;12.50;96.00;;;;;;5072412;28;20177;-62
2020/12/18 10:15:02;;;;;;;2.20;1.70;;;12.70;95.40;;;;;;5072262;28;20265;-61
2020/12/18 10:17:27;;;;;;;2.00;1.30;;;12.90;95.80;;;;;;5072141;28;20159;-61
2020/12/18 10:19:53;;;;;;;1.43;1.33;;;13.10;95.10;;;;;;5072314;28;20179;-61
2020/12/18 10:22:18;;;;;;;1.63;1.37;;;13.10;94.00;;;;;;5072460;28;20535;-61
2020/12/18 10:24:44;;;;;;;4.37;1.73;;;13.40;94.10;;;;;;5072066;28;20201;-61
2020/12/18 10:27:11;;;;;;;1.47;1.37;;;13.40;93.20;;;;;;5072096;28;20644;-62
2020/12/18 10:29:36;;;;;;;1.37;1.20;;;13.50;93.70;;;;;;5072143;28;20175;-62
2020/12/18 10:32:02;;;;;;;2.50;1.30;;;14.40;93.50;;;;;;5072267;28;20443;-62
2020/12/18 10:34:27;;;;;;;2.80;2.07;;;14.50;92.00;;;;;;5071782;28;20204;-62
2020/12/18 10:36:55;;;;;;;2.73;1.43;;;14.70;91.30;;;;;;5071989;28;20190;-62
2020/12/18 10:39:23;;;;;;;6.93;1.40;;;14.40;91.10;;;;;;5071340;28;20178;-62
2020/12/18 10:41:50;;;;;;;2.00;1.30;;;14.60;91.20;;;;;;5072092;28;20402;-62
2020/12/18 10:44:16;;;;;;;1.87;0.87;;;14.60;91.30;;;;;;5071932;28;20413;-62
2020/12/18 10:46:43;;;;;;;1.03;0.93;;;14.50;90.60;;;;;;5071578;28;20462;-62
2020/12/18 10:49:09;;;;;;;2.10;1.87;;;15.20;91.20;;;;;;5072015;28;20886;-62
2020/12/18 10:51:38;;;;;;;3.37;1.27;;;15.80;90.10;;;;;;5071864;28;20394;-62
2020/12/18 10:54:04;;;;;;;1.77;1.20;;;16.40;88.40;;;;;;5071825;28;20461;-62
2020/12/18 10:56:29;;;;;;;1.63;0.70;;;17.00;87.00;;;;;;5071667;28;20426;-62
2020/12/18 10:58:55;;;;;;;1.27;1.10;;;17.20;83.10;;;;;;5071832;28;20502;-63
2020/12/18 11:01:20;;;;;;;0.70;0.70;;;16.90;80.80;;;;;;5071655;28;20167;-62
2020/12/18 11:03:46;;;;;;;1.37;1.00;;;16.40;81.50;;;;;;5071727;28;20195;-62
2020/12/18 11:06:12;;;;;;;1.00;1.00;;;16.30;82.60;;;;;;5071712;28;20163;-62
2020/12/18 11:08:37;;;;;;;3.17;1.20;;;16.00;84.40;;;;;;5071567;28;20567;-62
2020/12/18 11:11:03;;;;;;;1.57;0.80;;;16.50;81.30;;;;;;5071688;28;20163;-62
2020/12/18 11:13:29;;;;;;;0.93;0.90;;;16.60;81.20;;;;;;5071511;28;20500;-62
2020/12/18 11:15:54;;;;;;;1.20;1.10;;;16.50;81.90;;;;;;5071613;28;20191;-62
2020/12/18 11:18:20;;;;;;;3.80;0.83;;;17.40;81.70;;;;;;5069835;28;20167;-62
2020/12/18 11:20:46;;;;;;;1.17;0.90;;;16.90;81.50;;;;;;5071668;28;20182;-62
2020/12/18 11:23:11;;;;;;;0.93;0.90;;;17.50;82.40;;;;;;5071451;28;20168;-62
2020/12/18 11:25:37;;;;;;;1.53;1.20;;;18.40;80.60;;;;;;5071532;28;20599;-62
2020/12/18 11:28:02;;;;;;;5.10;1.30;;;18.70;75.60;;;;;;5070932;28;20709;-62
2020/12/18 11:30:28;;;;;;;1.40;0.90;;;18.00;75.80;;;;;;5071518;28;20604;-62
2020/12/18 11:32:54;;;;;;;0.70;0.70;;;18.10;76.50;;;;;;5071464;28;20163;-62
2020/12/18 11:35:20;;;;;;;1.00;0.70;;;17.50;76.20;;;;;;5071220;28;20297;-62
2020/12/18 11:37:45;;;;;;;1.73;1.10;;;17.40;77.00;;;;;;5071255;28;20476;-62
2020/12/18 11:40:11;;;;;;;2.23;0.83;;;17.80;76.80;;;;;;5071394;28;20171;-62
2020/12/18 11:42:36;;;;;;;1.90;0.90;;;17.90;74.20;;;;;;5071479;28;20247;-62
2020/12/18 11:45:03;;;;;;;2.30;0.70;;;17.80;73.30;;;;;;5071074;28;20194;-62
2020/12/18 11:47:29;;;;;;;1.50;1.00;;;17.70;74.80;;;;;;5071150;28;20321;-62
2020/12/18 11:49:55;;;;;;;1.17;1.00;;;17.70;77.50;;;;;;5071403;28;20496;-62
2020/12/18 11:52:20;;;;;;;1.30;1.13;;;18.40;73.50;;;;;;5075132;28;20171;-63
2020/12/18 11:54:46;;;;;;;1.73;1.00;;;18.40;73.00;;;;;;5074994;28;20280;-62
2020/12/18 11:57:11;;;;;;;2.37;1.47;;;18.40;73.00;;;;;;5074543;28;20170;-63
2020/12/18 11:59:37;;;;;;;1.20;0.87;;;19.00;72.20;;;;;;5075001;28;20171;-63
2020/12/18 12:02:04;;;;;;;1.23;1.10;;;19.80;74.10;;;;;;5074873;28;20202;-63
2020/12/18 12:04:29;;;;;;;1.00;0.90;;;20.20;69.30;;;;;;5074844;28;20206;-63
2020/12/18 12:06:55;;;;;;;4.00;0.87;;;20.40;68.70;;;;;;5074477;28;20444;-63
2020/12/18 12:09:21;;;;;;;3.87;1.03;;;20.70;66.90;;;;;;5074945;28;20224;-63
2020/12/18 12:11:47;;;;;;;1.60;1.30;;;20.40;67.50;;;;;;5074786;28;20167;-63
2020/12/18 12:14:13;;;;;;;3.33;1.73;;;20.30;66.30;;;;;;5074291;28;20559;-63
2020/12/18 12:16:38;;;;;;;1.30;1.10;;;20.80;67.20;;;;;;5074495;28;20171;-63
2020/12/18 12:19:05;;;;;;;1.57;1.10;;;20.80;64.30;;;;;;5074595;28;20171;-63
2020/12/18 12:21:34;;;;;;;3.63;1.47;;;20.20;64.40;;;;;;5074742;28;20172;-63
2020/12/18 12:24:01;;;;;;;2.47;1.03;;;20.20;65.50;;;;;;5073569;28;20413;-62
2020/12/18 12:26:27;;;;;;;1.33;1.23;;;19.00;64.20;;;;;;5074182;28;20450;-63
2020/12/18 12:28:53;;;;;;;1.20;1.20;;;19.30;67.80;;;;;;5074188;28;20768;-63
2020/12/18 12:31:19;;;;;;;1.93;1.20;;;19.80;65.80;;;;;;5074484;28;20160;-63
2020/12/18 12:33:45;;;;;;;3.20;1.73;;;19.70;64.50;;;;;;5074313;28;20528;-63
2020/12/18 12:36:23;;;;;;;3.57;1.77;;;19.70;66.40;;;;;;5074335;28;20476;-63
2020/12/18 12:38:49;;;;;;;3.27;1.83;;;19.50;62.80;;;;;;5072947;28;20217;-63
2020/12/18 12:41:15;;;;;;;2.97;1.50;;;19.20;64.60;;;;;;5074136;28;20405;-63
2020/12/18 12:43:40;;;;;;;3.20;2.17;;;18.60;66.20;;;;;;5074195;28;20187;-63
2020/12/18 12:46:06;;;;;;;2.43;1.90;;;18.50;65.30;;;;;;5074124;28;20424;-63
2020/12/18 12:48:31;;;;;;;3.00;2.80;;;18.60;67.00;;;;;;5074044;28;20235;-63
2020/12/18 12:50:57;;;;;;;2.60;1.63;;;18.50;65.90;;;;;;5074048;28;20170;-63
2020/12/18 12:53:23;;;;;;;4.13;2.30;;;18.20;65.40;;;;;;5074126;28;20652;-63
2020/12/18 12:55:50;;;;;;;2.43;2.23;;;17.50;66.20;;;;;;5073806;28;20540;-63
2020/12/18 12:58:17;;;;;;;3.80;2.53;;;17.20;69.90;;;;;;5073572;28;20179;-63